sensor_id;sensor_type;location;lat;lon;timestamp;temperature;humidity
20463;DHT22;10390;53.566;9.980;2024-03-07T00:00:36;23.50;1.00
20463;DHT22;10390;53.566;9.980;2024-03-07T00:03:02;23.50;1.00
20463;DHT22;10390;53.566;9.980;2024-03-07T00:05:29;23.50;1.00
20463;DHT22;10390;53.566;9.980;2024-03-07T00:07:55;23.50;1.00
20463;DHT22;10390;53.566;9.980;2024-03-07T00:10:20;23.50;1.00
20463;DHT22;10390;53.566;9.980;2024-03-07T00:12:48;23.50;1.00
20463;DHT22;10390;53.566;9.980;2024-03-07T00:15:15;23.50;1.00
20463;DHT22;10390;53.566;9.980;2024-03-07T00:17:41;23.50;1.00
20463;DHT22;10390;53.566;9.980;2024-03-07T00:20:07;23.50;1.00
20463;DHT22;10390;53.566;9.980;2024-03-07T00:22:44;23.50;1.00
20463;DHT22;10390;53.566;9.980;2024-03-07T00:25:10;23.50;1.00
20463;DHT22;10390;53.566;9.980;2024-03-07T00:27:38;23.50;1.00
20463;DHT22;10390;53.566;9.980;2024-03-07T00:30:05;23.40;1.00
20463;DHT22;10390;53.566;9.980;2024-03-07T00:32:31;23.40;1.00
20463;DHT22;10390;53.566;9.980;2024-03-07T00:35:01;23.40;1.00
20463;DHT22;10390;53.566;9.980;2024-03-07T00:37:29;23.40;1.00
20463;DHT22;10390;53.566;9.980;2024-03-07T00:39:56;23.40;1.00
20463;DHT22;10390;53.566;9.980;2024-03-07T00:42:22;23.40;1.00
20463;DHT22;10390;53.566;9.980;2024-03-07T00:44:47;23.40;1.00
20463;DHT22;10390;53.566;9.980;2024-03-07T00:47:15;23.40;1.00
20463;DHT22;10390;53.566;9.980;2024-03-07T00:49:40;23.40;1.00
20463;DHT22;10390;53.566;9.980;2024-03-07T00:52:06;23.40;1.00
20463;DHT22;10390;53.566;9.980;2024-03-07T00:54:31;23.40;1.00
20463;DHT22;10390;53.566;9.980;2024-03-07T00:56:57;23.40;1.00
20463;DHT22;10390;53.566;9.980;2024-03-07T00:59:23;23.40;1.00
20463;DHT22;10390;53.566;9.980;2024-03-07T01:01:48;23.40;1.00
20463;DHT22;10390;53.566;9.980;2024-03-07T01:04:14;23.40;1.00
20463;DHT22;10390;53.566;9.980;2024-03-07T01:06:40;23.40;1.00
20463;DHT22;10390;53.566;9.980;2024-03-07T01:09:07;23.40;1.00
20463;DHT22;10390;53.566;9.980;2024-03-07T01:11:43;23.30;1.00
20463;DHT22;10390;53.566;9.980;2024-03-07T01:14:09;23.30;1.00
20463;DHT22;10390;53.566;9.980;2024-03-07T01:16:34;23.30;1.00
20463;DHT22;10390;53.566;9.980;2024-03-07T01:19:01;23.30;1.00
20463;DHT22;10390;53.566;9.980;2024-03-07T01:21:26;23.30;1.00
20463;DHT22;10390;53.566;9.980;2024-03-07T01:23:52;23.30;1.00
20463;DHT22;10390;53.566;9.980;2024-03-07T01:26:18;23.30;1.00
20463;DHT22;10390;53.566;9.980;2024-03-07T01:28:43;23.30;1.00
20463;DHT22;10390;53.566;9.980;2024-03-07T01:31:09;23.30;1.00
20463;DHT22;10390;53.566;9.980;2024-03-07T01:33:36;23.30;1.00
20463;DHT22;10390;53.566;9.980;2024-03-07T01:36:01;23.30;1.00
20463;DHT22;10390;53.566;9.980;2024-03-07T01:38:27;23.30;1.00
20463;DHT22;10390;53.566;9.980;2024-03-07T01:40:53;23.30;1.00
20463;DHT22;10390;53.566;9.980;2024-03-07T01:43:20;23.30;1.00
20463;DHT22;10390;53.566;9.980;2024-03-07T01:45:47;23.30;1.00
20463;DHT22;10390;53.566;9.980;2024-03-07T01:48:18;23.30;1.00
20463;DHT22;10390;53.566;9.980;2024-03-07T01:50:48;23.30;1.00
20463;DHT22;10390;53.566;9.980;2024-03-07T01:53:13;23.30;1.00
20463;DHT22;10390;53.566;9.980;2024-03-07T01:55:39;23.30;1.00
20463;DHT22;10390;53.566;9.980;2024-03-07T01:58:06;23.30;1.00
20463;DHT22;10390;53.566;9.980;2024-03-07T02:00:34;23.30;1.00
20463;DHT22;10390;53.566;9.980;2024-03-07T02:02:59;23.30;1.00
20463;DHT22;10390;53.566;9.980;2024-03-07T02:05:25;23.30;1.00
20463;DHT22;10390;53.566;9.980;2024-03-07T02:07:52;23.30;1.00
20463;DHT22;10390;53.566;9.980;2024-03-07T02:10:17;23.30;1.00
20463;DHT22;10390;53.566;9.980;2024-03-07T02:12:43;23.30;1.00
20463;DHT22;10390;53.566;9.980;2024-03-07T02:15:10;23.30;1.00
20463;DHT22;10390;53.566;9.980;2024-03-07T02:17:37;23.30;1.00
20463;DHT22;10390;53.566;9.980;2024-03-07T02:20:03;23.30;1.00
20463;DHT22;10390;53.566;9.980;2024-03-07T02:22:29;23.30;1.00
20463;DHT22;10390;53.566;9.980;2024-03-07T02:24:55;23.30;1.00
20463;DHT22;10390;53.566;9.980;2024-03-07T02:27:21;23.30;1.00
20463;DHT22;10390;53.566;9.980;2024-03-07T02:29:46;23.30;1.00
20463;DHT22;10390;53.566;9.980;2024-03-07T02:32:12;23.30;1.00
20463;DHT22;10390;53.566;9.980;2024-03-07T02:34:38;23.30;1.00
20463;DHT22;10390;53.566;9.980;2024-03-07T02:37:04;23.30;1.00
20463;DHT22;10390;53.566;9.980;2024-03-07T02:39:29;23.30;1.00
20463;DHT22;10390;53.566;9.980;2024-03-07T02:41:55;23.30;1.00
20463;DHT22;10390;53.566;9.980;2024-03-07T02:44:21;23.30;1.00
20463;DHT22;10390;53.566;9.980;2024-03-07T02:46:47;23.30;1.00
20463;DHT22;10390;53.566;9.980;2024-03-07T02:49:13;23.30;1.00
20463;DHT22;10390;53.566;9.980;2024-03-07T02:51:40;23.30;1.00
20463;DHT22;10390;53.566;9.980;2024-03-07T02:54:07;23.20;1.00
20463;DHT22;10390;53.566;9.980;2024-03-07T02:56:33;23.20;1.00
20463;DHT22;10390;53.566;9.980;2024-03-07T02:58:58;23.20;1.00
20463;DHT22;10390;53.566;9.980;2024-03-07T03:01:24;23.20;1.00
20463;DHT22;10390;53.566;9.980;2024-03-07T03:03:49;23.20;1.00
20463;DHT22;10390;53.566;9.980;2024-03-07T03:06:15;23.20;1.00
20463;DHT22;10390;53.566;9.980;2024-03-07T03:08:41;23.20;1.00
20463;DHT22;10390;53.566;9.980;2024-03-07T03:11:06;23.20;1.00
20463;DHT22;10390;53.566;9.980;2024-03-07T03:13:38;23.20;1.00
20463;DHT22;10390;53.566;9.980;2024-03-07T03:16:04;23.20;1.00
20463;DHT22;10390;53.566;9.980;2024-03-07T03:18:33;23.20;1.00
20463;DHT22;10390;53.566;9.980;2024-03-07T03:21:00;23.20;1.00
20463;DHT22;10390;53.566;9.980;2024-03-07T03:23:26;23.20;1.00
20463;DHT22;10390;53.566;9.980;2024-03-07T03:25:51;23.20;1.00
20463;DHT22;10390;53.566;9.980;2024-03-07T03:28:17;23.20;1.00
20463;DHT22;10390;53.566;9.980;2024-03-07T03:30:44;23.20;1.00
20463;DHT22;10390;53.566;9.980;2024-03-07T03:33:10;23.20;1.00
20463;DHT22;10390;53.566;9.980;2024-03-07T03:35:37;23.20;1.00
20463;DHT22;10390;53.566;9.980;2024-03-07T03:38:02;23.20;1.00
20463;DHT22;10390;53.566;9.980;2024-03-07T03:40:28;23.20;1.00
20463;DHT22;10390;53.566;9.980;2024-03-07T03:42:54;23.20;1.00
20463;DHT22;10390;53.566;9.980;2024-03-07T03:45:19;23.20;1.00
20463;DHT22;10390;53.566;9.980;2024-03-07T03:47:45;23.20;1.00
20463;DHT22;10390;53.566;9.980;2024-03-07T03:50:13;23.20;1.00
20463;DHT22;10390;53.566;9.980;2024-03-07T03:52:40;23.20;1.00
20463;DHT22;10390;53.566;9.980;2024-03-07T03:55:06;23.20;1.00
20463;DHT22;10390;53.566;9.980;2024-03-07T03:57:33;23.20;1.00
20463;DHT22;10390;53.566;9.980;2024-03-07T03:59:59;23.20;1.00
20463;DHT22;10390;53.566;9.980;2024-03-07T04:02:25;23.20;1.00
20463;DHT22;10390;53.566;9.980;2024-03-07T04:04:52;23.20;1.00
20463;DHT22;10390;53.566;9.980;2024-03-07T04:07:21;23.20;1.00
20463;DHT22;10390;53.566;9.980;2024-03-07T04:09:47;23.20;1.00
20463;DHT22;10390;53.566;9.980;2024-03-07T04:12:13;23.20;1.00
20463;DHT22;10390;53.566;9.980;2024-03-07T04:14:42;23.20;1.00
20463;DHT22;10390;53.566;9.980;2024-03-07T04:17:09;23.20;1.00
20463;DHT22;10390;53.566;9.980;2024-03-07T04:19:38;23.20;1.00
20463;DHT22;10390;53.566;9.980;2024-03-07T04:22:04;23.20;1.00
20463;DHT22;10390;53.566;9.980;2024-03-07T04:24:31;23.20;1.00
20463;DHT22;10390;53.566;9.980;2024-03-07T04:27:00;23.20;1.00
20463;DHT22;10390;53.566;9.980;2024-03-07T04:29:27;23.20;1.00
20463;DHT22;10390;53.566;9.980;2024-03-07T04:31:52;23.10;1.00
20463;DHT22;10390;53.566;9.980;2024-03-07T04:34:18;23.20;1.00
20463;DHT22;10390;53.566;9.980;2024-03-07T04:36:44;23.10;1.00
20463;DHT22;10390;53.566;9.980;2024-03-07T04:39:10;23.10;1.00
20463;DHT22;10390;53.566;9.980;2024-03-07T04:42:07;23.10;1.00
20463;DHT22;10390;53.566;9.980;2024-03-07T04:44:35;23.10;1.00
20463;DHT22;10390;53.566;9.980;2024-03-07T04:47:02;23.10;1.00
20463;DHT22;10390;53.566;9.980;2024-03-07T04:49:29;23.20;1.00
20463;DHT22;10390;53.566;9.980;2024-03-07T04:51:59;23.10;1.00
20463;DHT22;10390;53.566;9.980;2024-03-07T04:54:26;23.10;1.00
20463;DHT22;10390;53.566;9.980;2024-03-07T04:56:52;23.10;1.00
20463;DHT22;10390;53.566;9.980;2024-03-07T04:59:19;23.10;1.00
20463;DHT22;10390;53.566;9.980;2024-03-07T05:01:46;23.10;1.00
20463;DHT22;10390;53.566;9.980;2024-03-07T05:04:12;23.10;1.00
20463;DHT22;10390;53.566;9.980;2024-03-07T05:06:39;23.10;1.00
20463;DHT22;10390;53.566;9.980;2024-03-07T05:09:07;23.10;1.00
20463;DHT22;10390;53.566;9.980;2024-03-07T05:11:35;23.10;1.00
20463;DHT22;10390;53.566;9.980;2024-03-07T05:14:01;23.10;1.00
20463;DHT22;10390;53.566;9.980;2024-03-07T05:16:27;23.10;1.00
20463;DHT22;10390;53.566;9.980;2024-03-07T05:18:54;23.20;1.00
20463;DHT22;10390;53.566;9.980;2024-03-07T05:21:20;23.10;1.00
20463;DHT22;10390;53.566;9.980;2024-03-07T05:24:01;23.10;1.00
20463;DHT22;10390;53.566;9.980;2024-03-07T05:26:29;23.10;1.00
20463;DHT22;10390;53.566;9.980;2024-03-07T05:29:03;23.10;1.00
20463;DHT22;10390;53.566;9.980;2024-03-07T05:31:34;23.10;1.00
20463;DHT22;10390;53.566;9.980;2024-03-07T05:34:00;23.10;1.00
20463;DHT22;10390;53.566;9.980;2024-03-07T05:36:32;23.10;1.00
20463;DHT22;10390;53.566;9.980;2024-03-07T05:38:59;23.10;1.00
20463;DHT22;10390;53.566;9.980;2024-03-07T05:41:25;23.10;1.00
20463;DHT22;10390;53.566;9.980;2024-03-07T05:43:53;23.10;1.00
20463;DHT22;10390;53.566;9.980;2024-03-07T05:46:21;23.10;1.00
20463;DHT22;10390;53.566;9.980;2024-03-07T05:48:47;23.10;1.00
20463;DHT22;10390;53.566;9.980;2024-03-07T05:51:18;23.00;1.00
20463;DHT22;10390;53.566;9.980;2024-03-07T05:53:43;23.00;1.00
20463;DHT22;10390;53.566;9.980;2024-03-07T05:56:09;23.00;1.00
20463;DHT22;10390;53.566;9.980;2024-03-07T05:58:34;23.00;1.00
20463;DHT22;10390;53.566;9.980;2024-03-07T06:01:00;23.00;1.00
20463;DHT22;10390;53.566;9.980;2024-03-07T06:03:26;23.00;1.00
20463;DHT22;10390;53.566;9.980;2024-03-07T06:05:59;23.00;1.00
20463;DHT22;10390;53.566;9.980;2024-03-07T06:08:25;22.90;1.00
20463;DHT22;10390;53.566;9.980;2024-03-07T06:10:51;23.00;1.00
20463;DHT22;10390;53.566;9.980;2024-03-07T06:13:17;23.00;1.00
20463;DHT22;10390;53.566;9.980;2024-03-07T06:15:46;23.00;1.00
20463;DHT22;10390;53.566;9.980;2024-03-07T06:18:12;23.00;1.00
20463;DHT22;10390;53.566;9.980;2024-03-07T06:20:50;23.00;1.00
20463;DHT22;10390;53.566;9.980;2024-03-07T06:23:19;23.00;1.00
20463;DHT22;10390;53.566;9.980;2024-03-07T06:25:46;23.00;1.00
20463;DHT22;10390;53.566;9.980;2024-03-07T06:28:19;23.00;1.00
20463;DHT22;10390;53.566;9.980;2024-03-07T06:30:45;23.00;1.00
20463;DHT22;10390;53.566;9.980;2024-03-07T06:33:13;23.00;1.00
20463;DHT22;10390;53.566;9.980;2024-03-07T06:35:39;23.00;1.00
20463;DHT22;10390;53.566;9.980;2024-03-07T06:38:06;23.00;1.00
20463;DHT22;10390;53.566;9.980;2024-03-07T06:40:32;23.00;1.00
20463;DHT22;10390;53.566;9.980;2024-03-07T06:42:59;23.00;1.00
20463;DHT22;10390;53.566;9.980;2024-03-07T06:45:25;23.00;1.00
20463;DHT22;10390;53.566;9.980;2024-03-07T06:47:50;23.00;1.00
20463;DHT22;10390;53.566;9.980;2024-03-07T06:50:18;23.00;1.00
20463;DHT22;10390;53.566;9.980;2024-03-07T06:52:46;23.00;1.00
20463;DHT22;10390;53.566;9.980;2024-03-07T06:55:15;23.00;1.00
20463;DHT22;10390;53.566;9.980;2024-03-07T06:57:43;22.90;1.00
20463;DHT22;10390;53.566;9.980;2024-03-07T07:00:10;22.90;1.00
20463;DHT22;10390;53.566;9.980;2024-03-07T07:02:40;22.90;1.00
20463;DHT22;10390;53.566;9.980;2024-03-07T07:05:07;22.90;1.00
20463;DHT22;10390;53.566;9.980;2024-03-07T07:07:40;23.00;1.00
20463;DHT22;10390;53.566;9.980;2024-03-07T07:10:09;22.90;1.00
20463;DHT22;10390;53.566;9.980;2024-03-07T07:12:42;22.90;1.00
20463;DHT22;10390;53.566;9.980;2024-03-07T07:15:09;22.90;1.00
20463;DHT22;10390;53.566;9.980;2024-03-07T07:17:35;22.90;1.00
20463;DHT22;10390;53.566;9.980;2024-03-07T07:20:01;22.90;1.00
20463;DHT22;10390;53.566;9.980;2024-03-07T07:22:34;22.90;1.00
20463;DHT22;10390;53.566;9.980;2024-03-07T07:25:00;22.90;1.00
20463;DHT22;10390;53.566;9.980;2024-03-07T07:27:26;22.90;1.00
20463;DHT22;10390;53.566;9.980;2024-03-07T07:29:51;22.90;1.00
20463;DHT22;10390;53.566;9.980;2024-03-07T07:32:17;22.90;1.00
20463;DHT22;10390;53.566;9.980;2024-03-07T07:34:43;22.90;1.00
20463;DHT22;10390;53.566;9.980;2024-03-07T07:37:08;22.80;1.00
20463;DHT22;10390;53.566;9.980;2024-03-07T07:39:35;22.80;1.00
20463;DHT22;10390;53.566;9.980;2024-03-07T07:42:00;22.90;1.00
20463;DHT22;10390;53.566;9.980;2024-03-07T07:44:26;22.90;1.00
20463;DHT22;10390;53.566;9.980;2024-03-07T07:46:52;22.90;1.00
20463;DHT22;10390;53.566;9.980;2024-03-07T07:49:17;22.90;1.00
20463;DHT22;10390;53.566;9.980;2024-03-07T07:51:45;22.90;1.00
20463;DHT22;10390;53.566;9.980;2024-03-07T07:54:11;22.90;1.00
20463;DHT22;10390;53.566;9.980;2024-03-07T07:56:36;22.90;1.00
20463;DHT22;10390;53.566;9.980;2024-03-07T07:59:02;22.90;1.00
20463;DHT22;10390;53.566;9.980;2024-03-07T08:01:33;22.90;1.00
20463;DHT22;10390;53.566;9.980;2024-03-07T08:03:59;22.90;1.00
20463;DHT22;10390;53.566;9.980;2024-03-07T08:06:25;22.90;1.00
20463;DHT22;10390;53.566;9.980;2024-03-07T08:08:50;22.90;1.00
20463;DHT22;10390;53.566;9.980;2024-03-07T08:11:17;22.90;1.00
20463;DHT22;10390;53.566;9.980;2024-03-07T08:13:42;22.90;1.00
20463;DHT22;10390;53.566;9.980;2024-03-07T08:16:10;22.90;1.00
20463;DHT22;10390;53.566;9.980;2024-03-07T08:18:36;22.90;1.00
20463;DHT22;10390;53.566;9.980;2024-03-07T08:21:04;22.90;1.00
20463;DHT22;10390;53.566;9.980;2024-03-07T08:23:30;22.90;1.00
20463;DHT22;10390;53.566;9.980;2024-03-07T08:25:56;22.90;1.00
20463;DHT22;10390;53.566;9.980;2024-03-07T08:28:23;22.80;1.00
20463;DHT22;10390;53.566;9.980;2024-03-07T08:30:48;22.90;1.00
20463;DHT22;10390;53.566;9.980;2024-03-07T08:33:14;22.80;1.00
20463;DHT22;10390;53.566;9.980;2024-03-07T08:35:40;22.90;1.00
20463;DHT22;10390;53.566;9.980;2024-03-07T08:38:06;22.90;1.00
20463;DHT22;10390;53.566;9.980;2024-03-07T08:40:34;22.90;1.00
20463;DHT22;10390;53.566;9.980;2024-03-07T08:43:01;22.90;1.00
20463;DHT22;10390;53.566;9.980;2024-03-07T08:45:27;22.90;1.00
20463;DHT22;10390;53.566;9.980;2024-03-07T08:47:55;22.90;1.00
20463;DHT22;10390;53.566;9.980;2024-03-07T08:50:21;22.90;1.00
20463;DHT22;10390;53.566;9.980;2024-03-07T08:52:48;22.90;1.00
20463;DHT22;10390;53.566;9.980;2024-03-07T08:55:25;22.90;1.00
20463;DHT22;10390;53.566;9.980;2024-03-07T08:57:50;22.90;1.00
20463;DHT22;10390;53.566;9.980;2024-03-07T09:00:17;22.90;1.00
20463;DHT22;10390;53.566;9.980;2024-03-07T09:02:59;22.90;1.00
20463;DHT22;10390;53.566;9.980;2024-03-07T09:05:29;22.90;1.00
20463;DHT22;10390;53.566;9.980;2024-03-07T09:07:55;22.90;1.00
20463;DHT22;10390;53.566;9.980;2024-03-07T09:10:21;22.90;1.00
20463;DHT22;10390;53.566;9.980;2024-03-07T09:12:49;22.90;1.00
20463;DHT22;10390;53.566;9.980;2024-03-07T09:15:15;22.90;1.00
20463;DHT22;10390;53.566;9.980;2024-03-07T09:17:42;22.90;1.00
20463;DHT22;10390;53.566;9.980;2024-03-07T09:20:08;22.90;1.00
20463;DHT22;10390;53.566;9.980;2024-03-07T09:22:40;22.90;1.00
20463;DHT22;10390;53.566;9.980;2024-03-07T09:25:06;22.90;1.00
20463;DHT22;10390;53.566;9.980;2024-03-07T09:27:32;22.90;1.00
20463;DHT22;10390;53.566;9.980;2024-03-07T09:29:57;22.90;1.00
20463;DHT22;10390;53.566;9.980;2024-03-07T09:32:23;22.90;1.00
20463;DHT22;10390;53.566;9.980;2024-03-07T09:34:49;22.90;1.00
20463;DHT22;10390;53.566;9.980;2024-03-07T09:37:15;22.90;1.00
20463;DHT22;10390;53.566;9.980;2024-03-07T09:39:41;22.90;1.00
20463;DHT22;10390;53.566;9.980;2024-03-07T09:42:09;22.90;1.00
20463;DHT22;10390;53.566;9.980;2024-03-07T09:44:42;22.90;1.00
20463;DHT22;10390;53.566;9.980;2024-03-07T09:47:09;22.90;1.00
20463;DHT22;10390;53.566;9.980;2024-03-07T09:49:36;22.90;1.00
20463;DHT22;10390;53.566;9.980;2024-03-07T09:52:05;22.90;1.00
20463;DHT22;10390;53.566;9.980;2024-03-07T09:54:34;22.90;1.00
20463;DHT22;10390;53.566;9.980;2024-03-07T09:57:00;22.90;1.00
20463;DHT22;10390;53.566;9.980;2024-03-07T09:59:28;22.90;1.00
20463;DHT22;10390;53.566;9.980;2024-03-07T10:01:59;22.90;1.00
20463;DHT22;10390;53.566;9.980;2024-03-07T10:04:51;22.90;1.00
20463;DHT22;10390;53.566;9.980;2024-03-07T10:07:19;22.90;1.00
20463;DHT22;10390;53.566;9.980;2024-03-07T10:09:44;22.90;1.00
20463;DHT22;10390;53.566;9.980;2024-03-07T10:12:11;22.80;1.00
20463;DHT22;10390;53.566;9.980;2024-03-07T10:14:48;22.90;1.00
20463;DHT22;10390;53.566;9.980;2024-03-07T10:17:14;22.80;1.00
20463;DHT22;10390;53.566;9.980;2024-03-07T10:19:40;22.80;1.00
20463;DHT22;10390;53.566;9.980;2024-03-07T10:22:06;22.80;1.00
20463;DHT22;10390;53.566;9.980;2024-03-07T10:24:32;22.80;1.00
20463;DHT22;10390;53.566;9.980;2024-03-07T10:26:58;22.80;1.00
20463;DHT22;10390;53.566;9.980;2024-03-07T10:29:25;22.80;1.00
20463;DHT22;10390;53.566;9.980;2024-03-07T10:31:50;22.80;1.00
20463;DHT22;10390;53.566;9.980;2024-03-07T10:34:16;22.80;1.00
20463;DHT22;10390;53.566;9.980;2024-03-07T10:36:43;22.80;1.00
20463;DHT22;10390;53.566;9.980;2024-03-07T10:39:09;22.80;1.00
20463;DHT22;10390;53.566;9.980;2024-03-07T10:41:45;22.80;1.00
20463;DHT22;10390;53.566;9.980;2024-03-07T10:44:24;22.80;1.00
20463;DHT22;10390;53.566;9.980;2024-03-07T10:46:55;22.80;1.00
20463;DHT22;10390;53.566;9.980;2024-03-07T10:49:25;22.80;1.00
20463;DHT22;10390;53.566;9.980;2024-03-07T10:52:16;22.80;1.00
20463;DHT22;10390;53.566;9.980;2024-03-07T10:55:18;22.80;1.00
20463;DHT22;10390;53.566;9.980;2024-03-07T10:57:59;22.80;1.00
20463;DHT22;10390;53.566;9.980;2024-03-07T11:00:27;22.80;1.00
20463;DHT22;10390;53.566;9.980;2024-03-07T11:03:01;22.80;1.00
20463;DHT22;10390;53.566;9.980;2024-03-07T11:05:28;22.80;1.00
20463;DHT22;10390;53.566;9.980;2024-03-07T11:08:01;22.80;1.00
20463;DHT22;10390;53.566;9.980;2024-03-07T11:10:37;22.70;1.00
20463;DHT22;10390;53.566;9.980;2024-03-07T11:13:07;22.80;1.00
20463;DHT22;10390;53.566;9.980;2024-03-07T11:15:36;22.80;1.00
20463;DHT22;10390;53.566;9.980;2024-03-07T11:18:02;22.80;1.00
20463;DHT22;10390;53.566;9.980;2024-03-07T11:20:39;22.80;1.00
20463;DHT22;10390;53.566;9.980;2024-03-07T11:23:28;22.80;1.00
20463;DHT22;10390;53.566;9.980;2024-03-07T11:26:05;22.80;1.00
20463;DHT22;10390;53.566;9.980;2024-03-07T11:28:39;22.80;1.00
20463;DHT22;10390;53.566;9.980;2024-03-07T11:34:12;22.80;1.00
20463;DHT22;10390;53.566;9.980;2024-03-07T11:36:45;22.70;1.00
20463;DHT22;10390;53.566;9.980;2024-03-07T11:39:42;22.80;1.00
20463;DHT22;10390;53.566;9.980;2024-03-07T11:44:51;22.80;1.00
20463;DHT22;10390;53.566;9.980;2024-03-07T11:47:18;22.70;1.00
20463;DHT22;10390;53.566;9.980;2024-03-07T11:49:46;22.70;1.00
20463;DHT22;10390;53.566;9.980;2024-03-07T11:52:15;22.70;1.00
20463;DHT22;10390;53.566;9.980;2024-03-07T11:54:42;22.70;1.00
20463;DHT22;10390;53.566;9.980;2024-03-07T11:57:21;22.70;1.00
20463;DHT22;10390;53.566;9.980;2024-03-07T11:59:52;22.70;1.00
20463;DHT22;10390;53.566;9.980;2024-03-07T12:02:18;22.70;1.00
20463;DHT22;10390;53.566;9.980;2024-03-07T12:04:49;22.80;1.00
20463;DHT22;10390;53.566;9.980;2024-03-07T12:07:16;22.70;1.00
20463;DHT22;10390;53.566;9.980;2024-03-07T12:09:48;22.80;1.00
20463;DHT22;10390;53.566;9.980;2024-03-07T12:12:19;22.80;1.00
20463;DHT22;10390;53.566;9.980;2024-03-07T12:14:47;22.80;1.00
20463;DHT22;10390;53.566;9.980;2024-03-07T12:17:16;22.80;1.00
20463;DHT22;10390;53.566;9.980;2024-03-07T12:19:42;22.70;1.00
20463;DHT22;10390;53.566;9.980;2024-03-07T12:22:08;22.80;1.00
20463;DHT22;10390;53.566;9.980;2024-03-07T12:24:39;22.80;1.00
20463;DHT22;10390;53.566;9.980;2024-03-07T12:27:12;22.80;1.00
20463;DHT22;10390;53.566;9.980;2024-03-07T12:29:39;22.80;1.00
20463;DHT22;10390;53.566;9.980;2024-03-07T12:32:09;22.80;1.00
20463;DHT22;10390;53.566;9.980;2024-03-07T12:34:39;22.80;1.00
20463;DHT22;10390;53.566;9.980;2024-03-07T12:37:09;22.80;1.00
20463;DHT22;10390;53.566;9.980;2024-03-07T12:39:35;22.80;1.00
20463;DHT22;10390;53.566;9.980;2024-03-07T12:42:04;22.80;1.00
20463;DHT22;10390;53.566;9.980;2024-03-07T12:44:44;22.70;1.00
20463;DHT22;10390;53.566;9.980;2024-03-07T12:47:13;22.80;1.00
20463;DHT22;10390;53.566;9.980;2024-03-07T12:49:45;22.80;1.00
20463;DHT22;10390;53.566;9.980;2024-03-07T12:52:11;22.80;1.00
20463;DHT22;10390;53.566;9.980;2024-03-07T12:54:41;22.80;1.00
20463;DHT22;10390;53.566;9.980;2024-03-07T12:57:07;22.80;1.00
20463;DHT22;10390;53.566;9.980;2024-03-07T12:59:35;22.70;1.00
20463;DHT22;10390;53.566;9.980;2024-03-07T13:02:03;22.80;1.00
20463;DHT22;10390;53.566;9.980;2024-03-07T13:04:29;22.80;1.00
20463;DHT22;10390;53.566;9.980;2024-03-07T13:06:55;22.70;1.00
20463;DHT22;10390;53.566;9.980;2024-03-07T13:09:27;22.80;1.00
20463;DHT22;10390;53.566;9.980;2024-03-07T13:11:56;22.70;1.00
20463;DHT22;10390;53.566;9.980;2024-03-07T13:14:22;22.70;1.00
20463;DHT22;10390;53.566;9.980;2024-03-07T13:16:48;22.70;1.00
20463;DHT22;10390;53.566;9.980;2024-03-07T13:19:13;22.70;1.00
20463;DHT22;10390;53.566;9.980;2024-03-07T13:21:40;22.70;1.00
20463;DHT22;10390;53.566;9.980;2024-03-07T13:24:06;22.80;1.00
20463;DHT22;10390;53.566;9.980;2024-03-07T13:26:34;22.70;1.00
20463;DHT22;10390;53.566;9.980;2024-03-07T13:28:59;22.80;1.00
20463;DHT22;10390;53.566;9.980;2024-03-07T13:31:27;22.70;1.00
20463;DHT22;10390;53.566;9.980;2024-03-07T13:33:54;22.80;1.00
20463;DHT22;10390;53.566;9.980;2024-03-07T13:36:20;22.80;1.00
20463;DHT22;10390;53.566;9.980;2024-03-07T13:38:49;22.80;1.00
20463;DHT22;10390;53.566;9.980;2024-03-07T13:41:18;22.80;1.00
20463;DHT22;10390;53.566;9.980;2024-03-07T13:43:44;22.80;1.00
20463;DHT22;10390;53.566;9.980;2024-03-07T13:46:10;22.80;1.00
20463;DHT22;10390;53.566;9.980;2024-03-07T13:48:38;22.80;1.00
20463;DHT22;10390;53.566;9.980;2024-03-07T13:51:03;22.80;1.00
20463;DHT22;10390;53.566;9.980;2024-03-07T13:53:33;22.80;1.00
20463;DHT22;10390;53.566;9.980;2024-03-07T14:04:23;22.80;1.00
20463;DHT22;10390;53.566;9.980;2024-03-07T14:10:18;22.80;1.00
20463;DHT22;10390;53.566;9.980;2024-03-07T14:21:51;22.80;1.00
20463;DHT22;10390;53.566;9.980;2024-03-07T14:24:45;22.80;1.00
20463;DHT22;10390;53.566;9.980;2024-03-07T14:27:32;22.70;1.00
20463;DHT22;10390;53.566;9.980;2024-03-07T14:32:37;22.80;1.00
20463;DHT22;10390;53.566;9.980;2024-03-07T14:37:46;22.80;1.00
20463;DHT22;10390;53.566;9.980;2024-03-07T14:40:16;22.80;1.00
20463;DHT22;10390;53.566;9.980;2024-03-07T14:42:44;22.80;1.00
20463;DHT22;10390;53.566;9.980;2024-03-07T14:45:21;22.80;1.00
20463;DHT22;10390;53.566;9.980;2024-03-07T14:47:50;22.80;1.00
20463;DHT22;10390;53.566;9.980;2024-03-07T14:50:20;22.80;1.00
20463;DHT22;10390;53.566;9.980;2024-03-07T14:52:47;22.80;1.00
20463;DHT22;10390;53.566;9.980;2024-03-07T14:55:13;22.80;1.00
20463;DHT22;10390;53.566;9.980;2024-03-07T14:57:39;22.80;1.00
20463;DHT22;10390;53.566;9.980;2024-03-07T15:00:10;22.80;1.00
20463;DHT22;10390;53.566;9.980;2024-03-07T15:02:49;22.80;1.00
20463;DHT22;10390;53.566;9.980;2024-03-07T15:05:15;22.80;1.00
20463;DHT22;10390;53.566;9.980;2024-03-07T15:07:42;22.80;1.00
20463;DHT22;10390;53.566;9.980;2024-03-07T15:10:21;22.80;1.00
20463;DHT22;10390;53.566;9.980;2024-03-07T15:12:49;22.90;1.00
20463;DHT22;10390;53.566;9.980;2024-03-07T15:15:15;22.90;1.00
20463;DHT22;10390;53.566;9.980;2024-03-07T15:17:41;22.90;1.00
20463;DHT22;10390;53.566;9.980;2024-03-07T15:20:10;22.90;1.00
20463;DHT22;10390;53.566;9.980;2024-03-07T15:22:59;22.90;1.00
20463;DHT22;10390;53.566;9.980;2024-03-07T15:25:25;22.90;1.00
20463;DHT22;10390;53.566;9.980;2024-03-07T15:27:52;22.90;1.00
20463;DHT22;10390;53.566;9.980;2024-03-07T15:30:19;22.90;1.00
20463;DHT22;10390;53.566;9.980;2024-03-07T15:32:46;22.90;1.00
20463;DHT22;10390;53.566;9.980;2024-03-07T15:35:13;22.90;1.00
20463;DHT22;10390;53.566;9.980;2024-03-07T15:37:45;22.90;1.00
20463;DHT22;10390;53.566;9.980;2024-03-07T15:40:12;22.90;1.00
20463;DHT22;10390;53.566;9.980;2024-03-07T15:42:39;22.90;1.00
20463;DHT22;10390;53.566;9.980;2024-03-07T15:45:07;22.90;1.00
20463;DHT22;10390;53.566;9.980;2024-03-07T15:47:43;22.80;1.00
20463;DHT22;10390;53.566;9.980;2024-03-07T15:50:08;22.90;1.00
20463;DHT22;10390;53.566;9.980;2024-03-07T15:52:37;22.90;1.00
20463;DHT22;10390;53.566;9.980;2024-03-07T15:55:08;22.90;1.00
20463;DHT22;10390;53.566;9.980;2024-03-07T15:57:46;22.90;1.00
20463;DHT22;10390;53.566;9.980;2024-03-07T16:00:15;22.90;1.00
20463;DHT22;10390;53.566;9.980;2024-03-07T16:02:54;22.90;1.00
20463;DHT22;10390;53.566;9.980;2024-03-07T16:05:25;22.90;1.00
20463;DHT22;10390;53.566;9.980;2024-03-07T16:07:52;22.90;1.00
20463;DHT22;10390;53.566;9.980;2024-03-07T16:10:21;22.90;1.00
20463;DHT22;10390;53.566;9.980;2024-03-07T16:12:51;22.90;1.00
20463;DHT22;10390;53.566;9.980;2024-03-07T16:15:17;22.90;1.00
20463;DHT22;10390;53.566;9.980;2024-03-07T16:17:46;22.90;1.00
20463;DHT22;10390;53.566;9.980;2024-03-07T16:20:11;22.90;1.00
20463;DHT22;10390;53.566;9.980;2024-03-07T16:22:41;22.90;1.00